Neligh, NE (68756)

1:24 PM CDT on September 21, 2014 (GMT -0500)
KNENELIG1 | Change Station
CLOSE
Current Station
Personal Weather Station
Location: Neligh, NE
Elevation: 1750 ft
Nearby Weather Stations

Elev 1750 ft 42.13 °N, 98.03 °W | Updated 4 minutes ago

Clear
Clear
71.0 °F
Feels Like 77 °F
N
2.0
Wind Variable Wind from NW
Gusts 9.0 mph

Today
High -- | Low -- °F
--% Chance of Precip.
Yesterday
High -- | Low -- °F
Precip. -- in
7:18 AM 7:31 PM
Waning Crescent, 6% visible
Pressure 30.29 in
Visibility 10.0 miles
Clouds Clear
Heat Index 77 °F
Dew Point 48 °F
Humidity 44%
Rainfall -999.00 in
Snow Depth Not available.
UV 7 out of 12
Pollen 6.20 out of 12
Air Quality Not available.
Flu Activity Not available.
METAR KBVN 211815Z AUTO 33009G17KT 300V360 10SM CLR 21/05 A3029 RMK AO2 T02100049

More Conditions Fewer Conditions

Pressure 30.29 in
Visibility 10.0 miles
Clouds Clear
Heat Index 77 °F
Dew Point 48 °F
Humidity 44%
Rainfall -999.00 in
Snow Depth Not available.
UV 7 out of 12
Pollen 6.20 out of 12
Air Quality Not available.
Flu Activity Not available.
METAR KBVN 211815Z AUTO 33009G17KT 300V360 10SM CLR 21/05 A3029 RMK AO2 T02100049

More Conditions Fewer Conditions

10-Day Weather Forecast

Almanac

Astronomy

Sep. 21, 2014 Rise Set
Actual Time 7:18 AM CDT 7:31 PM CDT
Civil Twilight 6:50 AM CDT 7:58 PM CDT
Nautical Twilight 6:17 AM CDT 8:31 PM CDT
Astronomical Twilight 5:44 AM CDT 9:05 PM CDT
Moon 4:51 AM CDT 6:09 PM CDT
Length of Visible Light 13h 08m
Length of Day
12h 12m
Tomorrow will be 2m 50s shorter.
Waning Crescent, 6% of the Moon is Illuminated
Today
Waning Crescent
Sep 24
New
Oct 1
First Quarter
Oct 8
Full
Oct 15
Last Quarter

Today's Extremes

State Highs State Lows

Community

WunderPhotos

Upload Photos

1,755,212 photos uploaded!

WunderBlogs® & News

Nearby

Snow Depth

Station Depth Elevation
No new snow has been reported.

Earthquake Activity

City Distance Mag. Time & Date
No recent earthquake activity has been reported nearby.
Minimum magnitude displayed is 2.5.

Coastal Water Temperatures

Place Temperature
No Stations Reporting

Nearby Weather Stations